sensor_id;sensor_type;location;lat;lon;timestamp;P1;durP1;ratioP1;P2;durP2;ratioP2
73251;SDS011;61473;50.834;4.552;2022-07-29T00:02:10;3.47;;;1.65;;
73251;SDS011;61473;50.834;4.552;2022-07-29T00:04:36;4.20;;;1.48;;
73251;SDS011;61473;50.834;4.552;2022-07-29T00:07:02;5.85;;;1.63;;
73251;SDS011;61473;50.834;4.552;2022-07-29T00:09:28;3.92;;;1.42;;
73251;SDS011;61473;50.834;4.552;2022-07-29T00:11:55;2.35;;;0.95;;
73251;SDS011;61473;50.834;4.552;2022-07-29T00:14:24;7.50;;;1.67;;
73251;SDS011;61473;50.834;4.552;2022-07-29T00:16:50;1.90;;;1.60;;
73251;SDS011;61473;50.834;4.552;2022-07-29T00:19:15;11.13;;;2.17;;
73251;SDS011;61473;50.834;4.552;2022-07-29T00:21:41;4.07;;;1.40;;
73251;SDS011;61473;50.834;4.552;2022-07-29T00:24:07;5.63;;;1.20;;
73251;SDS011;61473;50.834;4.552;2022-07-29T00:26:32;9.05;;;1.90;;
73251;SDS011;61473;50.834;4.552;2022-07-29T00:28:59;5.38;;;1.52;;
73251;SDS011;61473;50.834;4.552;2022-07-29T00:31:26;4.50;;;1.52;;
73251;SDS011;61473;50.834;4.552;2022-07-29T00:33:52;4.90;;;1.50;;
73251;SDS011;61473;50.834;4.552;2022-07-29T00:36:18;6.38;;;2.03;;
73251;SDS011;61473;50.834;4.552;2022-07-29T00:38:43;5.13;;;1.25;;
73251;SDS011;61473;50.834;4.552;2022-07-29T00:41:11;6.10;;;1.10;;
73251;SDS011;61473;50.834;4.552;2022-07-29T00:43:37;7.13;;;1.40;;
73251;SDS011;61473;50.834;4.552;2022-07-29T00:46:03;5.63;;;1.20;;
73251;SDS011;61473;50.834;4.552;2022-07-29T00:48:29;6.72;;;1.60;;
73251;SDS011;61473;50.834;4.552;2022-07-29T00:50:55;7.82;;;1.42;;
73251;SDS011;61473;50.834;4.552;2022-07-29T00:53:23;4.90;;;2.53;;
73251;SDS011;61473;50.834;4.552;2022-07-29T00:55:49;5.43;;;1.42;;
73251;SDS011;61473;50.834;4.552;2022-07-29T00:58:15;2.45;;;1.23;;
73251;SDS011;61473;50.834;4.552;2022-07-29T01:00:41;5.18;;;1.75;;
73251;SDS011;61473;50.834;4.552;2022-07-29T01:03:08;7.18;;;1.60;;
73251;SDS011;61473;50.834;4.552;2022-07-29T01:05:34;6.97;;;1.70;;
73251;SDS011;61473;50.834;4.552;2022-07-29T01:08:00;4.15;;;1.48;;
73251;SDS011;61473;50.834;4.552;2022-07-29T01:10:27;5.60;;;1.45;;
73251;SDS011;61473;50.834;4.552;2022-07-29T01:12:54;6.35;;;1.80;;
73251;SDS011;61473;50.834;4.552;2022-07-29T01:15:23;4.18;;;1.30;;
73251;SDS011;61473;50.834;4.552;2022-07-29T01:18:04;4.50;;;1.80;;
73251;SDS011;61473;50.834;4.552;2022-07-29T01:23:26;7.97;;;1.60;;
73251;SDS011;61473;50.834;4.552;2022-07-29T01:29:12;11.05;;;1.83;;
73251;SDS011;61473;50.834;4.552;2022-07-29T01:31:42;6.82;;;1.77;;
73251;SDS011;61473;50.834;4.552;2022-07-29T01:34:17;7.35;;;2.00;;
73251;SDS011;61473;50.834;4.552;2022-07-29T01:36:59;5.70;;;1.83;;
73251;SDS011;61473;50.834;4.552;2022-07-29T01:39:36;4.72;;;2.55;;
73251;SDS011;61473;50.834;4.552;2022-07-29T01:45:05;3.67;;;1.40;;
73251;SDS011;61473;50.834;4.552;2022-07-29T01:47:43;3.53;;;1.80;;
73251;SDS011;61473;50.834;4.552;2022-07-29T01:50:16;3.15;;;1.38;;
73251;SDS011;61473;50.834;4.552;2022-07-29T01:52:53;4.93;;;1.52;;
73251;SDS011;61473;50.834;4.552;2022-07-29T01:55:22;7.60;;;1.83;;
73251;SDS011;61473;50.834;4.552;2022-07-29T01:57:53;3.85;;;1.60;;
73251;SDS011;61473;50.834;4.552;2022-07-29T02:00:21;8.18;;;1.77;;
73251;SDS011;61473;50.834;4.552;2022-07-29T02:02:49;3.53;;;1.60;;
73251;SDS011;61473;50.834;4.552;2022-07-29T02:05:18;4.30;;;1.55;;
73251;SDS011;61473;50.834;4.552;2022-07-29T02:07:48;3.42;;;1.50;;
73251;SDS011;61473;50.834;4.552;2022-07-29T02:10:15;5.03;;;1.30;;
73251;SDS011;61473;50.834;4.552;2022-07-29T02:12:43;3.47;;;1.48;;
73251;SDS011;61473;50.834;4.552;2022-07-29T02:15:11;6.03;;;1.60;;
73251;SDS011;61473;50.834;4.552;2022-07-29T02:18:00;2.22;;;1.40;;
73251;SDS011;61473;50.834;4.552;2022-07-29T02:20:29;2.83;;;1.50;;
73251;SDS011;61473;50.834;4.552;2022-07-29T02:22:57;5.10;;;1.83;;
73251;SDS011;61473;50.834;4.552;2022-07-29T02:25:24;4.82;;;1.25;;
73251;SDS011;61473;50.834;4.552;2022-07-29T02:27:52;4.88;;;1.63;;
73251;SDS011;61473;50.834;4.552;2022-07-29T02:30:19;6.53;;;1.80;;
73251;SDS011;61473;50.834;4.552;2022-07-29T02:32:47;4.20;;;1.60;;
73251;SDS011;61473;50.834;4.552;2022-07-29T02:35:14;8.05;;;1.77;;
73251;SDS011;61473;50.834;4.552;2022-07-29T02:37:42;5.22;;;1.92;;
73251;SDS011;61473;50.834;4.552;2022-07-29T02:40:12;7.13;;;1.80;;
73251;SDS011;61473;50.834;4.552;2022-07-29T02:42:41;8.63;;;1.77;;
73251;SDS011;61473;50.834;4.552;2022-07-29T02:45:09;3.30;;;1.40;;
73251;SDS011;61473;50.834;4.552;2022-07-29T02:47:40;9.38;;;1.90;;
73251;SDS011;61473;50.834;4.552;2022-07-29T02:50:29;6.18;;;1.63;;
73251;SDS011;61473;50.834;4.552;2022-07-29T02:53:01;5.40;;;1.65;;
73251;SDS011;61473;50.834;4.552;2022-07-29T02:55:40;7.53;;;1.77;;
73251;SDS011;61473;50.834;4.552;2022-07-29T02:58:29;2.72;;;1.40;;
73251;SDS011;61473;50.834;4.552;2022-07-29T03:01:20;3.28;;;1.80;;
73251;SDS011;61473;50.834;4.552;2022-07-29T03:03:48;4.63;;;1.85;;
73251;SDS011;61473;50.834;4.552;2022-07-29T03:06:16;3.97;;;1.40;;
73251;SDS011;61473;50.834;4.552;2022-07-29T03:08:43;6.10;;;1.83;;
73251;SDS011;61473;50.834;4.552;2022-07-29T03:11:10;2.97;;;1.50;;
73251;SDS011;61473;50.834;4.552;2022-07-29T03:13:37;1.90;;;1.23;;
73251;SDS011;61473;50.834;4.552;2022-07-29T03:16:04;7.47;;;1.92;;
73251;SDS011;61473;50.834;4.552;2022-07-29T03:18:31;3.78;;;1.23;;
73251;SDS011;61473;50.834;4.552;2022-07-29T03:20:57;4.93;;;1.58;;
73251;SDS011;61473;50.834;4.552;2022-07-29T03:23:23;4.05;;;1.10;;
73251;SDS011;61473;50.834;4.552;2022-07-29T03:25:51;5.03;;;1.48;;
73251;SDS011;61473;50.834;4.552;2022-07-29T03:28:17;6.50;;;1.23;;
73251;SDS011;61473;50.834;4.552;2022-07-29T03:30:42;3.15;;;1.38;;
73251;SDS011;61473;50.834;4.552;2022-07-29T03:33:08;5.05;;;1.40;;
73251;SDS011;61473;50.834;4.552;2022-07-29T03:35:34;5.93;;;1.80;;
73251;SDS011;61473;50.834;4.552;2022-07-29T03:37:59;2.03;;;1.08;;
73251;SDS011;61473;50.834;4.552;2022-07-29T03:40:27;1.33;;;1.20;;
73251;SDS011;61473;50.834;4.552;2022-07-29T03:42:57;3.67;;;1.67;;
73251;SDS011;61473;50.834;4.552;2022-07-29T03:45:25;7.20;;;1.65;;
73251;SDS011;61473;50.834;4.552;2022-07-29T03:47:53;4.07;;;1.45;;
73251;SDS011;61473;50.834;4.552;2022-07-29T03:50:21;3.45;;;1.45;;
73251;SDS011;61473;50.834;4.552;2022-07-29T03:52:48;5.55;;;1.40;;
73251;SDS011;61473;50.834;4.552;2022-07-29T03:55:14;2.20;;;1.48;;
73251;SDS011;61473;50.834;4.552;2022-07-29T03:57:40;8.10;;;1.52;;
73251;SDS011;61473;50.834;4.552;2022-07-29T04:00:08;4.50;;;1.17;;
73251;SDS011;61473;50.834;4.552;2022-07-29T04:02:34;8.40;;;1.80;;
73251;SDS011;61473;50.834;4.552;2022-07-29T04:05:01;4.63;;;1.33;;
73251;SDS011;61473;50.834;4.552;2022-07-29T04:07:27;3.42;;;1.20;;
73251;SDS011;61473;50.834;4.552;2022-07-29T04:09:52;4.97;;;1.65;;
73251;SDS011;61473;50.834;4.552;2022-07-29T04:12:18;3.95;;;1.33;;
73251;SDS011;61473;50.834;4.552;2022-07-29T04:14:45;3.90;;;1.40;;
73251;SDS011;61473;50.834;4.552;2022-07-29T04:17:11;5.78;;;1.30;;
73251;SDS011;61473;50.834;4.552;2022-07-29T04:19:37;6.68;;;1.17;;
73251;SDS011;61473;50.834;4.552;2022-07-29T04:22:02;4.50;;;1.45;;
73251;SDS011;61473;50.834;4.552;2022-07-29T04:24:28;4.90;;;1.60;;
73251;SDS011;61473;50.834;4.552;2022-07-29T04:26:54;2.75;;;1.70;;
73251;SDS011;61473;50.834;4.552;2022-07-29T04:29:20;5.30;;;1.40;;
73251;SDS011;61473;50.834;4.552;2022-07-29T04:31:46;3.28;;;1.77;;
73251;SDS011;61473;50.834;4.552;2022-07-29T04:34:12;8.07;;;1.83;;
73251;SDS011;61473;50.834;4.552;2022-07-29T04:36:38;2.25;;;1.10;;
73251;SDS011;61473;50.834;4.552;2022-07-29T04:39:04;3.17;;;1.20;;
73251;SDS011;61473;50.834;4.552;2022-07-29T04:41:30;5.28;;;1.83;;
73251;SDS011;61473;50.834;4.552;2022-07-29T04:43:56;3.28;;;1.88;;
73251;SDS011;61473;50.834;4.552;2022-07-29T04:46:21;3.90;;;1.52;;
73251;SDS011;61473;50.834;4.552;2022-07-29T04:48:48;4.57;;;1.20;;
73251;SDS011;61473;50.834;4.552;2022-07-29T04:51:14;2.30;;;1.40;;
73251;SDS011;61473;50.834;4.552;2022-07-29T04:53:40;4.93;;;1.48;;
73251;SDS011;61473;50.834;4.552;2022-07-29T04:56:06;3.28;;;1.40;;
73251;SDS011;61473;50.834;4.552;2022-07-29T04:58:34;2.13;;;1.63;;
73251;SDS011;61473;50.834;4.552;2022-07-29T05:01:00;3.63;;;1.38;;
73251;SDS011;61473;50.834;4.552;2022-07-29T05:03:26;2.10;;;1.20;;
73251;SDS011;61473;50.834;4.552;2022-07-29T05:05:51;3.95;;;1.40;;
73251;SDS011;61473;50.834;4.552;2022-07-29T05:08:17;3.97;;;1.70;;
73251;SDS011;61473;50.834;4.552;2022-07-29T05:10:43;4.53;;;1.60;;
73251;SDS011;61473;50.834;4.552;2022-07-29T05:13:08;4.88;;;1.58;;
73251;SDS011;61473;50.834;4.552;2022-07-29T05:15:35;4.70;;;1.77;;
73251;SDS011;61473;50.834;4.552;2022-07-29T05:18:01;6.57;;;1.45;;
73251;SDS011;61473;50.834;4.552;2022-07-29T05:20:27;3.33;;;1.60;;
73251;SDS011;61473;50.834;4.552;2022-07-29T05:22:57;6.15;;;2.13;;
73251;SDS011;61473;50.834;4.552;2022-07-29T05:25:24;3.45;;;1.85;;
73251;SDS011;61473;50.834;4.552;2022-07-29T05:27:51;6.03;;;1.95;;
73251;SDS011;61473;50.834;4.552;2022-07-29T05:30:16;17.20;;;3.15;;
73251;SDS011;61473;50.834;4.552;2022-07-29T05:32:42;36.80;;;9.13;;
73251;SDS011;61473;50.834;4.552;2022-07-29T05:35:08;23.63;;;8.00;;
73251;SDS011;61473;50.834;4.552;2022-07-29T05:37:34;26.35;;;6.03;;
73251;SDS011;61473;50.834;4.552;2022-07-29T05:40:00;18.52;;;6.28;;
73251;SDS011;61473;50.834;4.552;2022-07-29T05:42:27;22.67;;;5.43;;
73251;SDS011;61473;50.834;4.552;2022-07-29T05:44:53;17.92;;;6.90;;
73251;SDS011;61473;50.834;4.552;2022-07-29T05:47:19;17.77;;;5.55;;
73251;SDS011;61473;50.834;4.552;2022-07-29T05:49:45;18.77;;;6.03;;
73251;SDS011;61473;50.834;4.552;2022-07-29T05:52:11;20.23;;;4.97;;
73251;SDS011;61473;50.834;4.552;2022-07-29T05:54:38;14.68;;;5.22;;
73251;SDS011;61473;50.834;4.552;2022-07-29T05:57:04;18.00;;;5.03;;
73251;SDS011;61473;50.834;4.552;2022-07-29T05:59:30;25.02;;;6.00;;
73251;SDS011;61473;50.834;4.552;2022-07-29T06:01:57;10.00;;;4.18;;
73251;SDS011;61473;50.834;4.552;2022-07-29T06:04:22;13.43;;;4.47;;
73251;SDS011;61473;50.834;4.552;2022-07-29T06:06:48;14.65;;;5.03;;
73251;SDS011;61473;50.834;4.552;2022-07-29T06:09:13;11.85;;;4.25;;
73251;SDS011;61473;50.834;4.552;2022-07-29T06:11:40;17.90;;;4.40;;
73251;SDS011;61473;50.834;4.552;2022-07-29T06:14:06;11.32;;;3.22;;
73251;SDS011;61473;50.834;4.552;2022-07-29T06:16:32;10.75;;;3.50;;
73251;SDS011;61473;50.834;4.552;2022-07-29T06:18:57;11.70;;;4.00;;
73251;SDS011;61473;50.834;4.552;2022-07-29T06:21:23;12.48;;;3.75;;
73251;SDS011;61473;50.834;4.552;2022-07-29T06:23:55;15.10;;;4.15;;
73251;SDS011;61473;50.834;4.552;2022-07-29T06:26:20;13.30;;;3.63;;
73251;SDS011;61473;50.834;4.552;2022-07-29T06:28:46;9.43;;;3.47;;
73251;SDS011;61473;50.834;4.552;2022-07-29T06:31:12;12.85;;;3.30;;
73251;SDS011;61473;50.834;4.552;2022-07-29T06:33:37;9.40;;;3.20;;
73251;SDS011;61473;50.834;4.552;2022-07-29T06:36:04;13.15;;;3.38;;
73251;SDS011;61473;50.834;4.552;2022-07-29T06:38:30;8.75;;;3.42;;
73251;SDS011;61473;50.834;4.552;2022-07-29T06:40:57;7.68;;;3.17;;
73251;SDS011;61473;50.834;4.552;2022-07-29T06:43:36;7.78;;;3.13;;
73251;SDS011;61473;50.834;4.552;2022-07-29T06:46:04;6.50;;;2.60;;
73251;SDS011;61473;50.834;4.552;2022-07-29T06:48:31;3.83;;;2.13;;
73251;SDS011;61473;50.834;4.552;2022-07-29T06:50:58;6.30;;;2.63;;
73251;SDS011;61473;50.834;4.552;2022-07-29T06:53:24;5.60;;;2.00;;
73251;SDS011;61473;50.834;4.552;2022-07-29T06:55:50;4.45;;;2.28;;
73251;SDS011;61473;50.834;4.552;2022-07-29T06:58:16;4.47;;;2.25;;
73251;SDS011;61473;50.834;4.552;2022-07-29T07:00:45;4.45;;;2.90;;
73251;SDS011;61473;50.834;4.552;2022-07-29T07:03:12;6.30;;;2.22;;
73251;SDS011;61473;50.834;4.552;2022-07-29T07:05:38;2.80;;;1.50;;
73251;SDS011;61473;50.834;4.552;2022-07-29T07:08:04;3.33;;;1.60;;
73251;SDS011;61473;50.834;4.552;2022-07-29T07:10:30;4.40;;;1.75;;
73251;SDS011;61473;50.834;4.552;2022-07-29T07:12:57;5.25;;;1.90;;
73251;SDS011;61473;50.834;4.552;2022-07-29T07:15:22;5.70;;;1.63;;
73251;SDS011;61473;50.834;4.552;2022-07-29T07:17:48;2.97;;;1.38;;
73251;SDS011;61473;50.834;4.552;2022-07-29T07:20:15;4.35;;;1.55;;
73251;SDS011;61473;50.834;4.552;2022-07-29T07:22:42;2.28;;;1.77;;
73251;SDS011;61473;50.834;4.552;2022-07-29T07:25:08;2.72;;;1.80;;
73251;SDS011;61473;50.834;4.552;2022-07-29T07:27:34;6.10;;;2.13;;
73251;SDS011;61473;50.834;4.552;2022-07-29T07:30:01;2.55;;;1.60;;
73251;SDS011;61473;50.834;4.552;2022-07-29T07:32:27;3.88;;;1.92;;
73251;SDS011;61473;50.834;4.552;2022-07-29T07:34:53;2.85;;;1.65;;
73251;SDS011;61473;50.834;4.552;2022-07-29T07:37:19;4.00;;;1.38;;
73251;SDS011;61473;50.834;4.552;2022-07-29T07:39:45;2.85;;;1.48;;
73251;SDS011;61473;50.834;4.552;2022-07-29T07:42:11;4.13;;;1.90;;
73251;SDS011;61473;50.834;4.552;2022-07-29T07:44:38;2.47;;;1.52;;
73251;SDS011;61473;50.834;4.552;2022-07-29T07:47:05;2.22;;;1.40;;
73251;SDS011;61473;50.834;4.552;2022-07-29T07:49:30;6.53;;;1.73;;
73251;SDS011;61473;50.834;4.552;2022-07-29T07:51:56;2.95;;;1.60;;
73251;SDS011;61473;50.834;4.552;2022-07-29T07:54:22;2.55;;;1.30;;
73251;SDS011;61473;50.834;4.552;2022-07-29T07:56:48;3.83;;;1.80;;
73251;SDS011;61473;50.834;4.552;2022-07-29T07:59:14;2.22;;;1.20;;
73251;SDS011;61473;50.834;4.552;2022-07-29T08:01:40;5.85;;;1.50;;
73251;SDS011;61473;50.834;4.552;2022-07-29T08:04:07;2.38;;;1.40;;
73251;SDS011;61473;50.834;4.552;2022-07-29T08:06:33;2.92;;;1.42;;
73251;SDS011;61473;50.834;4.552;2022-07-29T08:09:03;4.43;;;1.85;;
73251;SDS011;61473;50.834;4.552;2022-07-29T08:11:30;3.83;;;1.75;;
73251;SDS011;61473;50.834;4.552;2022-07-29T08:13:56;2.10;;;1.13;;
73251;SDS011;61473;50.834;4.552;2022-07-29T08:16:22;3.45;;;1.40;;
73251;SDS011;61473;50.834;4.552;2022-07-29T08:18:47;1.33;;;1.10;;
73251;SDS011;61473;50.834;4.552;2022-07-29T08:21:14;1.40;;;1.10;;
73251;SDS011;61473;50.834;4.552;2022-07-29T08:23:40;3.70;;;1.75;;
73251;SDS011;61473;50.834;4.552;2022-07-29T08:26:12;4.82;;;1.58;;
73251;SDS011;61473;50.834;4.552;2022-07-29T08:28:42;3.25;;;1.60;;
73251;SDS011;61473;50.834;4.552;2022-07-29T08:31:14;2.17;;;1.42;;
73251;SDS011;61473;50.834;4.552;2022-07-29T08:33:40;1.15;;;0.93;;
73251;SDS011;61473;50.834;4.552;2022-07-29T08:36:06;2.92;;;1.38;;
73251;SDS011;61473;50.834;4.552;2022-07-29T08:38:32;2.53;;;1.48;;
73251;SDS011;61473;50.834;4.552;2022-07-29T08:40:59;2.13;;;1.27;;
73251;SDS011;61473;50.834;4.552;2022-07-29T08:43:26;3.38;;;0.90;;
73251;SDS011;61473;50.834;4.552;2022-07-29T08:45:53;2.67;;;1.67;;
73251;SDS011;61473;50.834;4.552;2022-07-29T08:48:21;1.80;;;1.15;;
73251;SDS011;61473;50.834;4.552;2022-07-29T08:50:48;1.80;;;1.23;;
73251;SDS011;61473;50.834;4.552;2022-07-29T08:53:19;1.30;;;1.00;;
73251;SDS011;61473;50.834;4.552;2022-07-29T08:55:47;2.03;;;1.05;;
73251;SDS011;61473;50.834;4.552;2022-07-29T08:58:14;1.83;;;1.10;;
73251;SDS011;61473;50.834;4.552;2022-07-29T09:00:51;1.40;;;1.10;;
73251;SDS011;61473;50.834;4.552;2022-07-29T09:03:22;2.28;;;1.17;;
73251;SDS011;61473;50.834;4.552;2022-07-29T09:05:49;3.20;;;1.23;;
73251;SDS011;61473;50.834;4.552;2022-07-29T09:08:16;1.52;;;0.80;;
73251;SDS011;61473;50.834;4.552;2022-07-29T09:10:43;2.33;;;1.20;;
73251;SDS011;61473;50.834;4.552;2022-07-29T09:13:09;1.63;;;0.98;;
73251;SDS011;61473;50.834;4.552;2022-07-29T09:15:35;1.33;;;1.08;;
73251;SDS011;61473;50.834;4.552;2022-07-29T09:18:01;1.98;;;1.50;;
73251;SDS011;61473;50.834;4.552;2022-07-29T09:20:27;3.10;;;1.02;;
73251;SDS011;61473;50.834;4.552;2022-07-29T09:23:13;1.10;;;1.00;;
73251;SDS011;61473;50.834;4.552;2022-07-29T09:25:39;1.75;;;1.00;;
73251;SDS011;61473;50.834;4.552;2022-07-29T09:30:58;0.70;;;0.70;;
73251;SDS011;61473;50.834;4.552;2022-07-29T09:33:23;1.85;;;1.30;;
73251;SDS011;61473;50.834;4.552;2022-07-29T09:36:03;2.33;;;1.60;;
73251;SDS011;61473;50.834;4.552;2022-07-29T09:38:30;3.42;;;1.10;;
73251;SDS011;61473;50.834;4.552;2022-07-29T09:40:57;1.92;;;1.35;;
73251;SDS011;61473;50.834;4.552;2022-07-29T09:43:24;1.40;;;0.85;;
73251;SDS011;61473;50.834;4.552;2022-07-29T09:45:49;1.33;;;0.85;;
73251;SDS011;61473;50.834;4.552;2022-07-29T09:48:16;1.52;;;0.95;;
73251;SDS011;61473;50.834;4.552;2022-07-29T09:50:44;1.58;;;1.05;;
73251;SDS011;61473;50.834;4.552;2022-07-29T09:53:11;0.98;;;0.77;;
73251;SDS011;61473;50.834;4.552;2022-07-29T09:55:54;0.70;;;0.70;;
73251;SDS011;61473;50.834;4.552;2022-07-29T09:58:20;1.85;;;0.93;;
73251;SDS011;61473;50.834;4.552;2022-07-29T10:00:48;1.88;;;0.85;;
73251;SDS011;61473;50.834;4.552;2022-07-29T10:03:15;1.10;;;1.00;;
73251;SDS011;61473;50.834;4.552;2022-07-29T10:05:41;1.20;;;0.82;;
73251;SDS011;61473;50.834;4.552;2022-07-29T10:08:09;2.35;;;1.13;;
73251;SDS011;61473;50.834;4.552;2022-07-29T10:10:38;1.05;;;0.80;;
73251;SDS011;61473;50.834;4.552;2022-07-29T10:13:09;1.63;;;1.10;;
73251;SDS011;61473;50.834;4.552;2022-07-29T10:15:37;1.48;;;1.00;;
73251;SDS011;61473;50.834;4.552;2022-07-29T10:18:06;2.05;;;0.80;;
73251;SDS011;61473;50.834;4.552;2022-07-29T10:20:33;1.30;;;0.63;;
73251;SDS011;61473;50.834;4.552;2022-07-29T10:22:58;1.23;;;0.60;;
73251;SDS011;61473;50.834;4.552;2022-07-29T10:25:24;1.38;;;0.80;;
73251;SDS011;61473;50.834;4.552;2022-07-29T10:27:52;1.25;;;1.00;;
73251;SDS011;61473;50.834;4.552;2022-07-29T10:30:19;0.82;;;0.80;;
73251;SDS011;61473;50.834;4.552;2022-07-29T10:35:47;1.00;;;0.85;;
73251;SDS011;61473;50.834;4.552;2022-07-29T10:43:51;1.30;;;0.95;;
73251;SDS011;61473;50.834;4.552;2022-07-29T10:49:04;1.45;;;0.80;;
73251;SDS011;61473;50.834;4.552;2022-07-29T10:51:52;0.80;;;0.75;;
73251;SDS011;61473;50.834;4.552;2022-07-29T10:54:35;1.33;;;1.02;;
73251;SDS011;61473;50.834;4.552;2022-07-29T10:59:37;1.75;;;0.95;;
73251;SDS011;61473;50.834;4.552;2022-07-29T11:02:09;1.58;;;0.82;;
73251;SDS011;61473;50.834;4.552;2022-07-29T11:05:02;0.70;;;0.70;;
73251;SDS011;61473;50.834;4.552;2022-07-29T11:07:30;0.80;;;0.60;;
73251;SDS011;61473;50.834;4.552;2022-07-29T11:15:06;2.35;;;0.70;;
73251;SDS011;61473;50.834;4.552;2022-07-29T11:25:52;1.10;;;0.70;;
73251;SDS011;61473;50.834;4.552;2022-07-29T11:29:03;1.05;;;0.50;;
73251;SDS011;61473;50.834;4.552;2022-07-29T11:31:48;1.08;;;0.50;;
73251;SDS011;61473;50.834;4.552;2022-07-29T11:44:53;0.93;;;0.60;;
73251;SDS011;61473;50.834;4.552;2022-07-29T11:47:19;0.60;;;0.60;;
73251;SDS011;61473;50.834;4.552;2022-07-29T11:49:46;0.70;;;0.70;;
73251;SDS011;61473;50.834;4.552;2022-07-29T11:52:13;1.27;;;1.13;;
73251;SDS011;61473;50.834;4.552;2022-07-29T11:54:39;0.75;;;0.75;;
73251;SDS011;61473;50.834;4.552;2022-07-29T11:57:08;1.20;;;0.90;;
73251;SDS011;61473;50.834;4.552;2022-07-29T11:59:40;1.73;;;1.00;;
73251;SDS011;61473;50.834;4.552;2022-07-29T12:02:07;0.90;;;0.82;;
73251;SDS011;61473;50.834;4.552;2022-07-29T12:04:33;0.93;;;0.65;;
73251;SDS011;61473;50.834;4.552;2022-07-29T12:07:12;0.93;;;0.73;;
73251;SDS011;61473;50.834;4.552;2022-07-29T12:09:38;0.60;;;0.57;;
73251;SDS011;61473;50.834;4.552;2022-07-29T12:12:04;0.82;;;0.60;;
73251;SDS011;61473;50.834;4.552;2022-07-29T12:14:33;0.45;;;0.40;;
73251;SDS011;61473;50.834;4.552;2022-07-29T12:16:59;1.45;;;0.80;;
73251;SDS011;61473;50.834;4.552;2022-07-29T12:19:26;1.30;;;0.98;;
73251;SDS011;61473;50.834;4.552;2022-07-29T12:21:55;1.10;;;0.90;;
73251;SDS011;61473;50.834;4.552;2022-07-29T12:24:23;1.52;;;0.75;;
73251;SDS011;61473;50.834;4.552;2022-07-29T12:26:54;0.75;;;0.65;;
73251;SDS011;61473;50.834;4.552;2022-07-29T12:29:21;0.90;;;0.68;;
73251;SDS011;61473;50.834;4.552;2022-07-29T12:31:51;1.70;;;0.60;;
73251;SDS011;61473;50.834;4.552;2022-07-29T12:34:19;0.93;;;0.80;;
73251;SDS011;61473;50.834;4.552;2022-07-29T12:36:47;1.10;;;1.00;;
73251;SDS011;61473;50.834;4.552;2022-07-29T12:39:14;0.63;;;0.50;;
73251;SDS011;61473;50.834;4.552;2022-07-29T12:41:42;1.10;;;0.75;;
73251;SDS011;61473;50.834;4.552;2022-07-29T12:44:08;1.83;;;0.70;;
73251;SDS011;61473;50.834;4.552;2022-07-29T12:46:34;0.80;;;0.80;;
73251;SDS011;61473;50.834;4.552;2022-07-29T12:49:00;1.27;;;0.80;;
73251;SDS011;61473;50.834;4.552;2022-07-29T12:51:29;0.85;;;0.70;;
73251;SDS011;61473;50.834;4.552;2022-07-29T12:54:07;1.17;;;0.77;;
73251;SDS011;61473;50.834;4.552;2022-07-29T12:56:38;1.05;;;0.57;;
73251;SDS011;61473;50.834;4.552;2022-07-29T13:01:38;0.80;;;0.80;;
73251;SDS011;61473;50.834;4.552;2022-07-29T13:04:04;1.58;;;1.08;;
73251;SDS011;61473;50.834;4.552;2022-07-29T13:09:17;3.25;;;0.90;;
73251;SDS011;61473;50.834;4.552;2022-07-29T13:11:51;0.65;;;0.65;;
73251;SDS011;61473;50.834;4.552;2022-07-29T13:14:34;1.33;;;0.90;;
73251;SDS011;61473;50.834;4.552;2022-07-29T13:22:13;0.80;;;0.55;;
73251;SDS011;61473;50.834;4.552;2022-07-29T13:24:48;1.13;;;0.80;;
73251;SDS011;61473;50.834;4.552;2022-07-29T13:27:15;1.00;;;0.85;;
73251;SDS011;61473;50.834;4.552;2022-07-29T13:29:44;0.77;;;0.77;;
73251;SDS011;61473;50.834;4.552;2022-07-29T13:32:11;0.80;;;0.60;;
73251;SDS011;61473;50.834;4.552;2022-07-29T13:34:38;1.63;;;0.77;;
73251;SDS011;61473;50.834;4.552;2022-07-29T13:37:04;1.75;;;1.08;;
73251;SDS011;61473;50.834;4.552;2022-07-29T13:39:30;1.33;;;0.80;;
73251;SDS011;61473;50.834;4.552;2022-07-29T13:41:55;1.30;;;0.80;;
73251;SDS011;61473;50.834;4.552;2022-07-29T13:44:21;0.68;;;0.63;;
73251;SDS011;61473;50.834;4.552;2022-07-29T13:46:47;1.05;;;0.60;;
73251;SDS011;61473;50.834;4.552;2022-07-29T13:49:13;0.70;;;0.70;;
73251;SDS011;61473;50.834;4.552;2022-07-29T13:51:38;0.82;;;0.82;;
73251;SDS011;61473;50.834;4.552;2022-07-29T13:54:04;1.55;;;0.98;;
73251;SDS011;61473;50.834;4.552;2022-07-29T13:56:30;2.28;;;0.55;;
73251;SDS011;61473;50.834;4.552;2022-07-29T13:58:56;1.33;;;0.77;;
73251;SDS011;61473;50.834;4.552;2022-07-29T14:01:22;1.05;;;0.85;;
73251;SDS011;61473;50.834;4.552;2022-07-29T14:03:48;1.45;;;1.00;;
73251;SDS011;61473;50.834;4.552;2022-07-29T14:06:14;1.05;;;0.80;;
73251;SDS011;61473;50.834;4.552;2022-07-29T14:08:40;1.75;;;0.88;;
73251;SDS011;61473;50.834;4.552;2022-07-29T14:11:06;1.00;;;0.73;;
73251;SDS011;61473;50.834;4.552;2022-07-29T14:13:31;0.88;;;0.63;;
73251;SDS011;61473;50.834;4.552;2022-07-29T14:15:57;1.00;;;0.90;;
73251;SDS011;61473;50.834;4.552;2022-07-29T14:18:23;1.65;;;0.80;;
73251;SDS011;61473;50.834;4.552;2022-07-29T14:20:48;1.38;;;0.90;;
73251;SDS011;61473;50.834;4.552;2022-07-29T14:23:15;1.40;;;1.17;;
73251;SDS011;61473;50.834;4.552;2022-07-29T14:25:41;1.55;;;0.65;;
73251;SDS011;61473;50.834;4.552;2022-07-29T14:28:06;0.98;;;0.77;;
73251;SDS011;61473;50.834;4.552;2022-07-29T14:30:32;1.52;;;0.80;;
73251;SDS011;61473;50.834;4.552;2022-07-29T14:32:58;1.17;;;1.02;;
73251;SDS011;61473;50.834;4.552;2022-07-29T14:35:24;1.42;;;0.90;;
73251;SDS011;61473;50.834;4.552;2022-07-29T14:37:49;1.40;;;1.00;;
73251;SDS011;61473;50.834;4.552;2022-07-29T14:40:15;1.67;;;0.90;;
73251;SDS011;61473;50.834;4.552;2022-07-29T14:42:41;1.10;;;0.98;;
73251;SDS011;61473;50.834;4.552;2022-07-29T14:45:07;0.60;;;0.60;;
73251;SDS011;61473;50.834;4.552;2022-07-29T14:47:34;2.13;;;0.93;;
73251;SDS011;61473;50.834;4.552;2022-07-29T14:50:00;1.38;;;0.80;;
73251;SDS011;61473;50.834;4.552;2022-07-29T14:52:26;0.77;;;0.70;;
73251;SDS011;61473;50.834;4.552;2022-07-29T14:54:52;1.40;;;1.00;;
73251;SDS011;61473;50.834;4.552;2022-07-29T14:57:17;1.27;;;0.68;;
73251;SDS011;61473;50.834;4.552;2022-07-29T14:59:43;0.93;;;0.90;;
73251;SDS011;61473;50.834;4.552;2022-07-29T15:02:08;1.15;;;0.88;;
73251;SDS011;61473;50.834;4.552;2022-07-29T15:04:34;1.55;;;0.90;;
73251;SDS011;61473;50.834;4.552;2022-07-29T15:07:00;2.13;;;0.90;;
73251;SDS011;61473;50.834;4.552;2022-07-29T15:09:25;1.10;;;0.75;;
73251;SDS011;61473;50.834;4.552;2022-07-29T15:11:51;0.90;;;0.57;;
73251;SDS011;61473;50.834;4.552;2022-07-29T15:14:17;0.75;;;0.75;;
73251;SDS011;61473;50.834;4.552;2022-07-29T15:16:43;2.22;;;0.77;;
73251;SDS011;61473;50.834;4.552;2022-07-29T15:19:09;0.93;;;0.90;;
73251;SDS011;61473;50.834;4.552;2022-07-29T15:21:35;2.35;;;0.77;;
73251;SDS011;61473;50.834;4.552;2022-07-29T15:24:01;1.27;;;0.93;;
73251;SDS011;61473;50.834;4.552;2022-07-29T15:26:26;1.58;;;1.00;;
73251;SDS011;61473;50.834;4.552;2022-07-29T15:28:52;1.02;;;0.65;;
73251;SDS011;61473;50.834;4.552;2022-07-29T15:31:18;1.13;;;0.90;;
73251;SDS011;61473;50.834;4.552;2022-07-29T15:33:43;1.05;;;0.88;;
73251;SDS011;61473;50.834;4.552;2022-07-29T15:36:10;1.63;;;0.77;;
73251;SDS011;61473;50.834;4.552;2022-07-29T15:38:37;0.95;;;0.82;;
73251;SDS011;61473;50.834;4.552;2022-07-29T15:41:05;1.30;;;0.90;;
73251;SDS011;61473;50.834;4.552;2022-07-29T15:43:32;1.55;;;0.80;;
73251;SDS011;61473;50.834;4.552;2022-07-29T15:45:59;1.90;;;1.08;;
73251;SDS011;61473;50.834;4.552;2022-07-29T15:48:44;0.80;;;0.80;;
73251;SDS011;61473;50.834;4.552;2022-07-29T15:51:10;0.68;;;0.60;;